sensor_id;sensor_type;location;lat;lon;timestamp;pressure;altitude;pressure_sealevel;temperature;humidity
74613;BME280;63119;51.788;8.824;2023-07-13T00:01:03;99854.81;;;19.62;60.16
74613;BME280;63119;51.788;8.824;2023-07-13T00:03:29;99855.59;;;19.47;60.91
74613;BME280;63119;51.788;8.824;2023-07-13T00:06:00;99847.34;;;19.40;60.89
74613;BME280;63119;51.788;8.824;2023-07-13T00:08:26;99860.34;;;19.27;61.79
74613;BME280;63119;51.788;8.824;2023-07-13T00:10:52;99865.38;;;19.22;62.11
74613;BME280;63119;51.788;8.824;2023-07-13T00:13:19;99867.50;;;19.02;62.54
74613;BME280;63119;51.788;8.824;2023-07-13T00:15:44;99871.63;;;18.97;62.76
74613;BME280;63119;51.788;8.824;2023-07-13T00:18:10;99862.94;;;19.03;62.99
74613;BME280;63119;51.788;8.824;2023-07-13T00:20:35;99865.81;;;19.09;62.73
74613;BME280;63119;51.788;8.824;2023-07-13T00:23:00;99869.00;;;19.05;62.80
74613;BME280;63119;51.788;8.824;2023-07-13T00:25:26;99873.75;;;19.19;62.27
74613;BME280;63119;51.788;8.824;2023-07-13T00:27:53;99881.78;;;19.11;62.44
74613;BME280;63119;51.788;8.824;2023-07-13T00:30:19;99878.25;;;19.10;62.47
74613;BME280;63119;51.788;8.824;2023-07-13T00:32:44;99880.09;;;19.10;62.65
74613;BME280;63119;51.788;8.824;2023-07-13T00:35:10;99880.19;;;19.00;62.55
74613;BME280;63119;51.788;8.824;2023-07-13T00:37:35;99878.88;;;19.04;62.36
74613;BME280;63119;51.788;8.824;2023-07-13T00:40:03;99872.66;;;18.96;62.55
74613;BME280;63119;51.788;8.824;2023-07-13T00:42:28;99870.22;;;18.85;62.65
74613;BME280;63119;51.788;8.824;2023-07-13T00:46:10;99866.44;;;18.95;62.29
74613;BME280;63119;51.788;8.824;2023-07-13T00:47:52;99869.25;;;18.86;63.03
74613;BME280;63119;51.788;8.824;2023-07-13T00:50:19;99869.56;;;18.83;62.70
74613;BME280;63119;51.788;8.824;2023-07-13T00:52:49;99863.47;;;18.73;63.58
74613;BME280;63119;51.788;8.824;2023-07-13T00:55:16;99865.25;;;18.64;63.65
74613;BME280;63119;51.788;8.824;2023-07-13T00:57:43;99865.13;;;18.66;63.53
74613;BME280;63119;51.788;8.824;2023-07-13T01:00:09;99863.75;;;18.62;63.97
74613;BME280;63119;51.788;8.824;2023-07-13T01:02:37;99858.38;;;18.62;63.73
74613;BME280;63119;51.788;8.824;2023-07-13T01:05:12;99860.16;;;18.53;64.02
74613;BME280;63119;51.788;8.824;2023-07-13T01:07:39;99860.59;;;18.48;64.32
74613;BME280;63119;51.788;8.824;2023-07-13T01:10:06;99854.88;;;18.43;64.18
74613;BME280;63119;51.788;8.824;2023-07-13T01:12:31;99862.47;;;18.30;65.43
74613;BME280;63119;51.788;8.824;2023-07-13T01:14:58;99865.88;;;18.32;65.47
74613;BME280;63119;51.788;8.824;2023-07-13T01:17:24;99862.16;;;18.33;64.94
74613;BME280;63119;51.788;8.824;2023-07-13T01:19:49;99873.28;;;18.38;64.89
74613;BME280;63119;51.788;8.824;2023-07-13T01:22:16;99866.75;;;18.41;64.95
74613;BME280;63119;51.788;8.824;2023-07-13T01:24:43;99860.66;;;18.31;65.22
74613;BME280;63119;51.788;8.824;2023-07-13T01:27:12;99867.13;;;18.20;65.25
74613;BME280;63119;51.788;8.824;2023-07-13T01:29:38;99863.94;;;18.25;65.28
74613;BME280;63119;51.788;8.824;2023-07-13T01:32:13;99861.59;;;18.22;65.47
74613;BME280;63119;51.788;8.824;2023-07-13T01:34:39;99854.97;;;18.08;66.60
74613;BME280;63119;51.788;8.824;2023-07-13T01:37:07;99854.78;;;18.10;66.38
74613;BME280;63119;51.788;8.824;2023-07-13T01:39:32;99871.94;;;18.17;66.11
74613;BME280;63119;51.788;8.824;2023-07-13T01:41:58;99874.44;;;18.18;66.26
74613;BME280;63119;51.788;8.824;2023-07-13T01:44:23;99878.66;;;18.21;66.45
74613;BME280;63119;51.788;8.824;2023-07-13T01:46:48;99880.19;;;18.23;66.61
74613;BME280;63119;51.788;8.824;2023-07-13T01:49:14;99876.31;;;18.18;66.84
74613;BME280;63119;51.788;8.824;2023-07-13T01:51:39;99882.28;;;18.12;67.12
74613;BME280;63119;51.788;8.824;2023-07-13T01:54:04;99878.97;;;18.18;67.15
74613;BME280;63119;51.788;8.824;2023-07-13T01:56:29;99882.78;;;18.15;67.44
74613;BME280;63119;51.788;8.824;2023-07-13T01:58:55;99881.78;;;18.16;67.15
74613;BME280;63119;51.788;8.824;2023-07-13T02:01:20;99889.84;;;18.16;67.19
74613;BME280;63119;51.788;8.824;2023-07-13T02:03:45;99884.88;;;18.03;67.96
74613;BME280;63119;51.788;8.824;2023-07-13T02:06:12;99880.81;;;18.17;66.85
74613;BME280;63119;51.788;8.824;2023-07-13T02:08:37;99882.03;;;18.23;67.32
74613;BME280;63119;51.788;8.824;2023-07-13T02:11:03;99876.72;;;18.31;66.62
74613;BME280;63119;51.788;8.824;2023-07-13T02:13:28;99872.84;;;18.25;66.27
74613;BME280;63119;51.788;8.824;2023-07-13T02:15:53;99883.28;;;18.36;65.75
74613;BME280;63119;51.788;8.824;2023-07-13T02:18:19;99884.00;;;18.38;65.36
74613;BME280;63119;51.788;8.824;2023-07-13T02:20:44;99885.81;;;18.38;65.04
74613;BME280;63119;51.788;8.824;2023-07-13T02:23:09;99885.47;;;18.33;64.86
74613;BME280;63119;51.788;8.824;2023-07-13T02:25:35;99885.66;;;18.39;64.77
74613;BME280;63119;51.788;8.824;2023-07-13T02:28:00;99879.78;;;18.36;64.35
74613;BME280;63119;51.788;8.824;2023-07-13T02:30:26;99887.81;;;18.36;64.92
74613;BME280;63119;51.788;8.824;2023-07-13T02:32:52;99891.13;;;18.30;64.92
74613;BME280;63119;51.788;8.824;2023-07-13T02:35:17;99885.97;;;18.36;64.81
74613;BME280;63119;51.788;8.824;2023-07-13T02:37:42;99883.41;;;18.27;65.47
74613;BME280;63119;51.788;8.824;2023-07-13T02:40:08;99883.41;;;18.27;65.17
74613;BME280;63119;51.788;8.824;2023-07-13T02:42:34;99875.69;;;18.24;65.04
74613;BME280;63119;51.788;8.824;2023-07-13T02:44:59;99877.22;;;18.09;65.55
74613;BME280;63119;51.788;8.824;2023-07-13T02:47:24;99867.03;;;18.12;65.46
74613;BME280;63119;51.788;8.824;2023-07-13T02:49:50;99873.84;;;18.07;65.73
74613;BME280;63119;51.788;8.824;2023-07-13T02:52:15;99881.03;;;18.06;65.25
74613;BME280;63119;51.788;8.824;2023-07-13T02:54:40;99880.91;;;18.08;64.86
74613;BME280;63119;51.788;8.824;2023-07-13T02:57:06;99884.56;;;18.07;64.66
74613;BME280;63119;51.788;8.824;2023-07-13T02:59:31;99882.66;;;17.99;65.18
74613;BME280;63119;51.788;8.824;2023-07-13T03:01:57;99884.31;;;18.00;64.96
74613;BME280;63119;51.788;8.824;2023-07-13T03:04:22;99886.31;;;17.98;65.19
74613;BME280;63119;51.788;8.824;2023-07-13T03:06:48;99883.97;;;17.95;64.74
74613;BME280;63119;51.788;8.824;2023-07-13T03:09:13;99891.81;;;17.96;64.58
74613;BME280;63119;51.788;8.824;2023-07-13T03:11:38;99900.47;;;17.90;64.96
74613;BME280;63119;51.788;8.824;2023-07-13T03:14:04;99890.66;;;17.81;64.69
74613;BME280;63119;51.788;8.824;2023-07-13T03:16:29;99885.56;;;17.88;64.85
74613;BME280;63119;51.788;8.824;2023-07-13T03:18:54;99891.50;;;17.82;64.29
74613;BME280;63119;51.788;8.824;2023-07-13T03:21:20;99895.22;;;17.81;64.82
74613;BME280;63119;51.788;8.824;2023-07-13T03:23:45;99898.88;;;17.80;64.47
74613;BME280;63119;51.788;8.824;2023-07-13T03:26:20;99897.78;;;17.73;64.71
74613;BME280;63119;51.788;8.824;2023-07-13T03:28:46;99901.97;;;17.75;64.68
74613;BME280;63119;51.788;8.824;2023-07-13T03:31:14;99907.75;;;17.80;64.14
74613;BME280;63119;51.788;8.824;2023-07-13T03:33:40;99909.81;;;17.86;63.99
74613;BME280;63119;51.788;8.824;2023-07-13T03:36:07;99919.06;;;17.92;63.70
74613;BME280;63119;51.788;8.824;2023-07-13T03:38:33;99914.00;;;17.89;64.07
74613;BME280;63119;51.788;8.824;2023-07-13T03:40:59;99914.47;;;18.02;63.06
74613;BME280;63119;51.788;8.824;2023-07-13T03:43:24;99906.06;;;17.97;63.07
74613;BME280;63119;51.788;8.824;2023-07-13T03:45:49;99909.63;;;18.06;62.99
74613;BME280;63119;51.788;8.824;2023-07-13T03:48:15;99924.13;;;17.95;62.70
74613;BME280;63119;51.788;8.824;2023-07-13T03:50:40;99924.41;;;17.92;63.32
74613;BME280;63119;51.788;8.824;2023-07-13T03:53:06;99927.53;;;17.87;62.63
74613;BME280;63119;51.788;8.824;2023-07-13T03:55:31;99928.63;;;17.94;62.46
74613;BME280;63119;51.788;8.824;2023-07-13T03:58:23;99932.06;;;17.87;62.22
74613;BME280;63119;51.788;8.824;2023-07-13T04:00:49;99936.22;;;17.99;63.90
74613;BME280;63119;51.788;8.824;2023-07-13T04:03:15;99930.44;;;17.94;61.86
74613;BME280;63119;51.788;8.824;2023-07-13T04:05:41;99929.16;;;17.98;62.07
74613;BME280;63119;51.788;8.824;2023-07-13T04:08:06;99926.16;;;18.19;60.82
74613;BME280;63119;51.788;8.824;2023-07-13T04:10:32;99934.38;;;18.17;61.01
74613;BME280;63119;51.788;8.824;2023-07-13T04:12:57;99932.59;;;18.26;60.52
74613;BME280;63119;51.788;8.824;2023-07-13T04:15:22;99935.81;;;18.29;60.27
74613;BME280;63119;51.788;8.824;2023-07-13T04:17:47;99945.31;;;18.41;60.10
74613;BME280;63119;51.788;8.824;2023-07-13T04:20:13;99946.78;;;18.53;58.50
74613;BME280;63119;51.788;8.824;2023-07-13T04:22:38;99945.75;;;18.72;58.29
74613;BME280;63119;51.788;8.824;2023-07-13T04:25:03;99945.06;;;18.96;57.03
74613;BME280;63119;51.788;8.824;2023-07-13T04:27:30;99943.97;;;19.40;56.27
74613;BME280;63119;51.788;8.824;2023-07-13T04:29:55;99948.16;;;19.43;55.36
74613;BME280;63119;51.788;8.824;2023-07-13T04:32:20;99940.41;;;19.74;54.75
74613;BME280;63119;51.788;8.824;2023-07-13T04:34:46;99950.38;;;19.47;55.14
74613;BME280;63119;51.788;8.824;2023-07-13T04:37:11;99953.94;;;19.64;55.28
74613;BME280;63119;51.788;8.824;2023-07-13T04:39:36;99947.75;;;19.63;54.97
74613;BME280;63119;51.788;8.824;2023-07-13T04:42:03;99952.81;;;19.67;54.28
74613;BME280;63119;51.788;8.824;2023-07-13T04:44:28;99946.28;;;19.69;54.21
74613;BME280;63119;51.788;8.824;2023-07-13T04:46:53;99949.81;;;19.78;54.17
74613;BME280;63119;51.788;8.824;2023-07-13T04:49:18;99947.06;;;19.53;54.54
74613;BME280;63119;51.788;8.824;2023-07-13T04:51:44;99947.53;;;19.49;54.52
74613;BME280;63119;51.788;8.824;2023-07-13T04:54:09;99946.59;;;19.66;54.06
74613;BME280;63119;51.788;8.824;2023-07-13T04:56:34;99949.09;;;19.68;53.84
74613;BME280;63119;51.788;8.824;2023-07-13T04:58:59;99951.97;;;19.66;53.82
74613;BME280;63119;51.788;8.824;2023-07-13T05:01:24;99947.47;;;19.83;53.61
74613;BME280;63119;51.788;8.824;2023-07-13T05:03:50;99948.97;;;19.85;53.13
74613;BME280;63119;51.788;8.824;2023-07-13T05:06:15;99949.34;;;19.90;53.51
74613;BME280;63119;51.788;8.824;2023-07-13T05:08:40;99949.50;;;19.89;53.42
74613;BME280;63119;51.788;8.824;2023-07-13T05:11:06;99959.44;;;20.04;53.04
74613;BME280;63119;51.788;8.824;2023-07-13T05:13:32;99960.28;;;20.05;52.78
74613;BME280;63119;51.788;8.824;2023-07-13T05:15:59;99964.16;;;20.02;52.52
74613;BME280;63119;51.788;8.824;2023-07-13T05:18:25;99962.19;;;20.29;52.22
74613;BME280;63119;51.788;8.824;2023-07-13T05:21:17;99960.69;;;20.50;51.78
74613;BME280;63119;51.788;8.824;2023-07-13T05:23:42;99967.06;;;20.82;51.09
74613;BME280;63119;51.788;8.824;2023-07-13T05:26:10;99961.50;;;20.83;50.61
74613;BME280;63119;51.788;8.824;2023-07-13T05:28:36;99963.88;;;20.78;50.96
74613;BME280;63119;51.788;8.824;2023-07-13T05:31:02;99965.72;;;20.78;51.17
74613;BME280;63119;51.788;8.824;2023-07-13T05:33:27;99971.06;;;21.02;50.50
74613;BME280;63119;51.788;8.824;2023-07-13T05:35:53;99976.63;;;20.92;50.74
74613;BME280;63119;51.788;8.824;2023-07-13T05:38:19;99970.09;;;20.87;50.26
74613;BME280;63119;51.788;8.824;2023-07-13T05:40:45;99971.25;;;20.84;50.12
74613;BME280;63119;51.788;8.824;2023-07-13T05:43:11;99969.22;;;21.02;49.90
74613;BME280;63119;51.788;8.824;2023-07-13T05:45:36;99969.22;;;20.86;50.49
74613;BME280;63119;51.788;8.824;2023-07-13T05:48:02;99963.19;;;20.84;50.03
74613;BME280;63119;51.788;8.824;2023-07-13T05:50:27;99967.06;;;20.65;50.54
74613;BME280;63119;51.788;8.824;2023-07-13T05:52:52;99963.53;;;20.65;50.55
74613;BME280;63119;51.788;8.824;2023-07-13T05:55:19;99973.78;;;20.53;51.08
74613;BME280;63119;51.788;8.824;2023-07-13T05:57:44;99975.22;;;19.99;52.42
74613;BME280;63119;51.788;8.824;2023-07-13T06:00:10;99977.22;;;19.97;52.55
74613;BME280;63119;51.788;8.824;2023-07-13T06:02:35;99976.78;;;20.18;52.42
74613;BME280;63119;51.788;8.824;2023-07-13T06:05:00;99979.16;;;20.37;52.18
74613;BME280;63119;51.788;8.824;2023-07-13T06:07:26;99980.78;;;20.14;52.63
74613;BME280;63119;51.788;8.824;2023-07-13T06:09:51;99986.44;;;19.95;53.31
74613;BME280;63119;51.788;8.824;2023-07-13T06:12:16;99985.84;;;19.67;54.22
74613;BME280;63119;51.788;8.824;2023-07-13T06:14:41;99982.41;;;19.49;54.88
74613;BME280;63119;51.788;8.824;2023-07-13T06:17:07;99993.38;;;19.30;55.90
74613;BME280;63119;51.788;8.824;2023-07-13T06:19:32;99994.56;;;19.35;56.01
74613;BME280;63119;51.788;8.824;2023-07-13T06:21:57;99993.56;;;19.36;55.51
74613;BME280;63119;51.788;8.824;2023-07-13T06:24:24;99987.19;;;19.37;56.01
74613;BME280;63119;51.788;8.824;2023-07-13T06:26:49;99991.50;;;19.56;55.64
74613;BME280;63119;51.788;8.824;2023-07-13T06:29:14;100000.69;;;19.45;56.31
74613;BME280;63119;51.788;8.824;2023-07-13T06:31:39;100007.41;;;19.49;55.94
74613;BME280;63119;51.788;8.824;2023-07-13T06:34:05;100012.44;;;19.44;56.37
74613;BME280;63119;51.788;8.824;2023-07-13T06:36:30;100014.47;;;19.50;56.47
74613;BME280;63119;51.788;8.824;2023-07-13T06:38:55;100019.50;;;19.45;56.60
74613;BME280;63119;51.788;8.824;2023-07-13T06:41:20;100013.00;;;19.64;56.23
74613;BME280;63119;51.788;8.824;2023-07-13T06:43:47;100012.88;;;19.74;55.78
74613;BME280;63119;51.788;8.824;2023-07-13T06:46:12;100017.16;;;20.00;55.55
74613;BME280;63119;51.788;8.824;2023-07-13T06:48:39;100011.03;;;20.24;54.80
74613;BME280;63119;51.788;8.824;2023-07-13T06:51:04;100011.75;;;20.34;54.51
74613;BME280;63119;51.788;8.824;2023-07-13T06:53:29;100008.75;;;20.78;53.79
74613;BME280;63119;51.788;8.824;2023-07-13T06:55:54;100019.84;;;20.75;53.47
74613;BME280;63119;51.788;8.824;2023-07-13T06:58:20;100008.75;;;21.10;52.85
74613;BME280;63119;51.788;8.824;2023-07-13T07:00:46;100017.06;;;21.47;52.41
74613;BME280;63119;51.788;8.824;2023-07-13T07:03:11;100018.75;;;21.48;52.30
74613;BME280;63119;51.788;8.824;2023-07-13T07:05:37;100022.81;;;21.44;51.92
74613;BME280;63119;51.788;8.824;2023-07-13T07:08:02;100017.31;;;21.05;53.33
74613;BME280;63119;51.788;8.824;2023-07-13T07:10:30;100024.84;;;21.42;52.41
74613;BME280;63119;51.788;8.824;2023-07-13T07:12:55;100020.03;;;20.81;53.28
74613;BME280;63119;51.788;8.824;2023-07-13T07:15:21;100025.88;;;20.52;54.23
74613;BME280;63119;51.788;8.824;2023-07-13T07:17:46;100019.16;;;20.64;54.87
74613;BME280;63119;51.788;8.824;2023-07-13T07:20:11;100028.75;;;20.59;55.25
74613;BME280;63119;51.788;8.824;2023-07-13T07:22:36;100017.97;;;21.07;54.27
74613;BME280;63119;51.788;8.824;2023-07-13T07:25:02;100022.84;;;21.36;53.52
74613;BME280;63119;51.788;8.824;2023-07-13T07:27:27;100021.69;;;21.31;53.43
74613;BME280;63119;51.788;8.824;2023-07-13T07:29:53;100021.16;;;20.95;54.26
74613;BME280;63119;51.788;8.824;2023-07-13T07:32:19;100013.97;;;20.87;54.07
74613;BME280;63119;51.788;8.824;2023-07-13T07:34:44;100028.06;;;20.57;55.21
74613;BME280;63119;51.788;8.824;2023-07-13T07:37:12;100025.81;;;20.20;56.08
74613;BME280;63119;51.788;8.824;2023-07-13T07:39:37;100021.97;;;20.31;55.80
74613;BME280;63119;51.788;8.824;2023-07-13T07:42:03;100020.69;;;20.59;55.18
74613;BME280;63119;51.788;8.824;2023-07-13T07:44:30;100018.84;;;20.84;55.59
74613;BME280;63119;51.788;8.824;2023-07-13T07:46:56;100031.28;;;20.68;55.08
74613;BME280;63119;51.788;8.824;2023-07-13T07:49:21;100025.41;;;20.81;55.13
74613;BME280;63119;51.788;8.824;2023-07-13T07:51:46;100027.59;;;20.94;54.74
74613;BME280;63119;51.788;8.824;2023-07-13T07:54:12;100026.91;;;21.16;53.99
74613;BME280;63119;51.788;8.824;2023-07-13T07:56:37;100031.25;;;21.25;54.41
74613;BME280;63119;51.788;8.824;2023-07-13T07:59:02;100031.53;;;21.46;54.31
74613;BME280;63119;51.788;8.824;2023-07-13T08:01:27;100035.94;;;21.31;53.87
74613;BME280;63119;51.788;8.824;2023-07-13T08:03:53;100040.34;;;21.16;53.99
74613;BME280;63119;51.788;8.824;2023-07-13T08:06:18;100033.28;;;20.99;54.67
74613;BME280;63119;51.788;8.824;2023-07-13T08:08:47;100048.09;;;21.27;53.92
74613;BME280;63119;51.788;8.824;2023-07-13T08:11:12;100043.88;;;21.33;53.95
74613;BME280;63119;51.788;8.824;2023-07-13T08:13:38;100052.78;;;20.77;55.13
74613;BME280;63119;51.788;8.824;2023-07-13T08:16:06;100055.97;;;20.80;55.20
74613;BME280;63119;51.788;8.824;2023-07-13T08:18:32;100045.03;;;20.73;55.22
74613;BME280;63119;51.788;8.824;2023-07-13T08:20:57;100052.28;;;20.89;55.23
74613;BME280;63119;51.788;8.824;2023-07-13T08:23:24;100056.19;;;21.11;55.22
74613;BME280;63119;51.788;8.824;2023-07-13T08:25:52;100043.38;;;21.05;54.90
74613;BME280;63119;51.788;8.824;2023-07-13T08:28:19;100044.38;;;20.96;55.21
74613;BME280;63119;51.788;8.824;2023-07-13T08:30:45;100055.53;;;21.09;54.97
74613;BME280;63119;51.788;8.824;2023-07-13T08:33:14;100044.06;;;21.15;54.97
74613;BME280;63119;51.788;8.824;2023-07-13T08:35:39;100054.38;;;21.66;53.86
74613;BME280;63119;51.788;8.824;2023-07-13T08:38:04;100042.22;;;21.78;53.30
74613;BME280;63119;51.788;8.824;2023-07-13T08:40:29;100046.88;;;22.01;52.43
74613;BME280;63119;51.788;8.824;2023-07-13T08:42:57;100043.94;;;22.41;51.20
74613;BME280;63119;51.788;8.824;2023-07-13T08:45:30;100041.78;;;22.37;51.70
74613;BME280;63119;51.788;8.824;2023-07-13T08:48:02;100044.91;;;22.48;51.13
74613;BME280;63119;51.788;8.824;2023-07-13T08:50:34;100046.88;;;22.85;50.28
74613;BME280;63119;51.788;8.824;2023-07-13T08:53:01;100041.25;;;22.86;49.89
74613;BME280;63119;51.788;8.824;2023-07-13T08:55:31;100039.72;;;22.69;50.27
74613;BME280;63119;51.788;8.824;2023-07-13T08:58:14;100046.91;;;22.77;49.89
74613;BME280;63119;51.788;8.824;2023-07-13T09:00:51;100030.41;;;22.95;48.69
74613;BME280;63119;51.788;8.824;2023-07-13T09:03:29;100037.81;;;23.53;47.38
74613;BME280;63119;51.788;8.824;2023-07-13T09:05:58;100030.59;;;23.60;47.38
74613;BME280;63119;51.788;8.824;2023-07-13T09:08:33;100033.78;;;23.63;47.82
74613;BME280;63119;51.788;8.824;2023-07-13T09:11:38;100040.97;;;23.85;46.66
74613;BME280;63119;51.788;8.824;2023-07-13T09:14:34;100042.47;;;23.73;46.48
74613;BME280;63119;51.788;8.824;2023-07-13T09:17:05;100032.34;;;23.97;45.83
74613;BME280;63119;51.788;8.824;2023-07-13T09:19:34;100050.28;;;23.16;46.89
74613;BME280;63119;51.788;8.824;2023-07-13T09:22:02;100048.50;;;23.46;46.23
74613;BME280;63119;51.788;8.824;2023-07-13T09:24:57;100039.00;;;23.50;46.54
74613;BME280;63119;51.788;8.824;2023-07-13T09:27:28;100041.78;;;23.57;46.29
74613;BME280;63119;51.788;8.824;2023-07-13T09:30:04;100040.63;;;23.36;46.46
74613;BME280;63119;51.788;8.824;2023-07-13T09:32:37;100043.94;;;23.76;45.68
74613;BME280;63119;51.788;8.824;2023-07-13T09:35:08;100033.00;;;23.25;46.62
74613;BME280;63119;51.788;8.824;2023-07-13T09:37:35;100042.88;;;23.33;46.27
74613;BME280;63119;51.788;8.824;2023-07-13T09:40:01;100043.75;;;23.48;46.61
74613;BME280;63119;51.788;8.824;2023-07-13T09:42:30;100041.47;;;23.95;45.59
74613;BME280;63119;51.788;8.824;2023-07-13T09:45:00;100042.59;;;23.86;45.53
74613;BME280;63119;51.788;8.824;2023-07-13T09:47:31;100045.59;;;23.91;45.26
74613;BME280;63119;51.788;8.824;2023-07-13T09:49:59;100048.16;;;24.29;45.08
74613;BME280;63119;51.788;8.824;2023-07-13T09:52:26;100044.31;;;24.38;45.53
74613;BME280;63119;51.788;8.824;2023-07-13T09:54:54;100041.66;;;24.80;45.47
74613;BME280;63119;51.788;8.824;2023-07-13T09:57:26;100033.06;;;24.20;44.90
74613;BME280;63119;51.788;8.824;2023-07-13T09:59:54;100047.88;;;23.59;45.80
74613;BME280;63119;51.788;8.824;2023-07-13T10:02:34;100045.31;;;23.86;45.32
74613;BME280;63119;51.788;8.824;2023-07-13T10:05:10;100041.03;;;23.92;45.19
74613;BME280;63119;51.788;8.824;2023-07-13T10:07:43;100042.09;;;23.76;46.06
74613;BME280;63119;51.788;8.824;2023-07-13T10:10:17;100045.31;;;23.86;45.36
74613;BME280;63119;51.788;8.824;2023-07-13T10:12:43;100045.69;;;23.69;46.21
74613;BME280;63119;51.788;8.824;2023-07-13T10:15:15;100045.56;;;23.33;46.38
74613;BME280;63119;51.788;8.824;2023-07-13T10:17:41;100048.50;;;23.09;47.37
74613;BME280;63119;51.788;8.824;2023-07-13T10:20:06;100045.53;;;23.04;47.40
74613;BME280;63119;51.788;8.824;2023-07-13T10:22:54;100048.88;;;23.06;47.08
74613;BME280;63119;51.788;8.824;2023-07-13T10:25:25;100049.63;;;23.14;46.50
74613;BME280;63119;51.788;8.824;2023-07-13T10:27:53;100054.50;;;22.96;46.93
74613;BME280;63119;51.788;8.824;2023-07-13T10:30:29;100051.13;;;22.79;47.63
74613;BME280;63119;51.788;8.824;2023-07-13T10:33:00;100059.91;;;22.96;46.73
74613;BME280;63119;51.788;8.824;2023-07-13T10:35:26;100056.72;;;23.67;46.37
74613;BME280;63119;51.788;8.824;2023-07-13T10:37:58;100054.66;;;24.13;45.65
74613;BME280;63119;51.788;8.824;2023-07-13T10:40:33;100053.09;;;24.40;45.15
74613;BME280;63119;51.788;8.824;2023-07-13T10:43:02;100053.06;;;24.19;44.49
74613;BME280;63119;51.788;8.824;2023-07-13T10:45:34;100055.00;;;24.82;44.37
74613;BME280;63119;51.788;8.824;2023-07-13T10:48:00;100060.09;;;24.34;43.79
74613;BME280;63119;51.788;8.824;2023-07-13T10:50:28;100057.16;;;24.15;43.91
74613;BME280;63119;51.788;8.824;2023-07-13T10:53:01;100065.44;;;23.99;44.15
74613;BME280;63119;51.788;8.824;2023-07-13T10:55:35;100065.72;;;24.04;44.66
74613;BME280;63119;51.788;8.824;2023-07-13T10:58:21;100051.69;;;24.65;44.38
74613;BME280;63119;51.788;8.824;2023-07-13T11:03:34;100063.19;;;24.31;44.22
74613;BME280;63119;51.788;8.824;2023-07-13T11:06:39;100060.41;;;24.10;45.56
74613;BME280;63119;51.788;8.824;2023-07-13T11:09:31;100060.06;;;24.13;44.85
74613;BME280;63119;51.788;8.824;2023-07-13T11:12:01;100060.50;;;24.17;44.64
74613;BME280;63119;51.788;8.824;2023-07-13T11:14:37;100059.31;;;24.19;44.37
74613;BME280;63119;51.788;8.824;2023-07-13T11:20:20;100056.00;;;24.24;44.40
74613;BME280;63119;51.788;8.824;2023-07-13T11:22:50;100057.41;;;24.20;43.74
74613;BME280;63119;51.788;8.824;2023-07-13T11:25:30;100059.09;;;24.21;43.00
74613;BME280;63119;51.788;8.824;2023-07-13T11:30:50;100064.59;;;24.84;43.48
74613;BME280;63119;51.788;8.824;2023-07-13T11:33:28;100059.84;;;25.08;42.14
74613;BME280;63119;51.788;8.824;2023-07-13T11:36:00;100053.03;;;24.76;41.43
74613;BME280;63119;51.788;8.824;2023-07-13T11:38:28;100046.16;;;24.73;41.23
74613;BME280;63119;51.788;8.824;2023-07-13T11:40:55;100047.31;;;24.64;41.39
74613;BME280;63119;51.788;8.824;2023-07-13T11:43:23;100048.00;;;24.52;42.24
74613;BME280;63119;51.788;8.824;2023-07-13T11:45:49;100059.66;;;24.02;43.09
74613;BME280;63119;51.788;8.824;2023-07-13T11:50:52;100052.22;;;24.18;43.68
74613;BME280;63119;51.788;8.824;2023-07-13T11:53:19;100046.31;;;24.51;43.42
74613;BME280;63119;51.788;8.824;2023-07-13T11:55:44;100041.13;;;24.49;43.28
74613;BME280;63119;51.788;8.824;2023-07-13T11:58:22;100041.56;;;24.17;43.64
74613;BME280;63119;51.788;8.824;2023-07-13T12:00:49;100053.81;;;24.13;42.87
74613;BME280;63119;51.788;8.824;2023-07-13T12:03:20;100047.66;;;24.19;41.90
74613;BME280;63119;51.788;8.824;2023-07-13T12:05:59;100041.31;;;24.12;43.02
74613;BME280;63119;51.788;8.824;2023-07-13T12:08:26;100052.97;;;23.98;43.00
74613;BME280;63119;51.788;8.824;2023-07-13T12:11:04;100051.09;;;23.98;42.70
74613;BME280;63119;51.788;8.824;2023-07-13T12:13:35;100049.16;;;23.92;43.08
74613;BME280;63119;51.788;8.824;2023-07-13T12:16:02;100040.84;;;24.44;42.36
74613;BME280;63119;51.788;8.824;2023-07-13T12:18:33;100039.31;;;24.56;40.68
74613;BME280;63119;51.788;8.824;2023-07-13T12:20:59;100041.56;;;24.53;40.36
74613;BME280;63119;51.788;8.824;2023-07-13T12:23:29;100040.78;;;24.37;41.01
74613;BME280;63119;51.788;8.824;2023-07-13T12:25:56;100036.34;;;24.51;41.30
74613;BME280;63119;51.788;8.824;2023-07-13T12:28:34;100042.19;;;24.33;42.13
74613;BME280;63119;51.788;8.824;2023-07-13T12:31:02;100042.88;;;24.21;42.19
74613;BME280;63119;51.788;8.824;2023-07-13T12:33:29;100044.59;;;24.43;41.77
74613;BME280;63119;51.788;8.824;2023-07-13T12:35:56;100047.94;;;24.45;41.63
74613;BME280;63119;51.788;8.824;2023-07-13T12:38:25;100044.63;;;24.28;41.37
74613;BME280;63119;51.788;8.824;2023-07-13T12:40:51;100048.56;;;23.97;41.63
74613;BME280;63119;51.788;8.824;2023-07-13T12:43:20;100054.56;;;23.92;42.11
74613;BME280;63119;51.788;8.824;2023-07-13T12:46:02;100049.88;;;24.01;42.06
74613;BME280;63119;51.788;8.824;2023-07-13T12:48:28;100051.38;;;23.88;42.24
74613;BME280;63119;51.788;8.824;2023-07-13T12:50:55;100053.59;;;24.00;42.64
74613;BME280;63119;51.788;8.824;2023-07-13T12:53:23;100047.72;;;24.25;41.98
74613;BME280;63119;51.788;8.824;2023-07-13T12:55:52;100056.81;;;24.39;42.19
74613;BME280;63119;51.788;8.824;2023-07-13T12:58:39;100057.06;;;24.44;41.33
74613;BME280;63119;51.788;8.824;2023-07-13T13:01:07;100057.31;;;24.28;41.69
74613;BME280;63119;51.788;8.824;2023-07-13T13:03:35;100056.56;;;24.34;42.11
74613;BME280;63119;51.788;8.824;2023-07-13T13:06:03;100059.44;;;24.32;42.12
74613;BME280;63119;51.788;8.824;2023-07-13T13:08:36;100066.28;;;24.14;42.45
74613;BME280;63119;51.788;8.824;2023-07-13T13:11:02;100062.00;;;24.19;42.69